createdAt,value
2019-01-31T00:01:51.508Z,2.40
2019-01-31T00:05:29.038Z,1.80
2019-01-31T00:08:46.156Z,1.60
2019-01-31T00:12:35.114Z,2.00
2019-01-31T00:15:56.652Z,2.30
2019-01-31T00:18:38.115Z,2.13
2019-01-31T00:22:15.619Z,2.17
2019-01-31T00:24:56.736Z,2.50
2019-01-31T00:27:49.362Z,1.93
2019-01-31T00:30:47.902Z,2.23
2019-01-31T00:34:00.347Z,1.80
2019-01-31T00:37:53.622Z,1.47
2019-01-31T00:41:14.726Z,1.90
2019-01-31T00:44:27.581Z,2.20
2019-01-31T00:47:52.420Z,1.67
2019-01-31T00:50:44.768Z,1.77
2019-01-31T00:53:55.562Z,2.20
2019-01-31T00:57:17.641Z,2.00
2019-01-31T01:00:44.898Z,1.73
2019-01-31T01:04:14.062Z,2.00
2019-01-31T01:07:47.575Z,1.77
2019-01-31T01:11:12.261Z,2.10
2019-01-31T01:14:21.080Z,2.30
2019-01-31T01:17:40.974Z,2.50
2019-01-31T01:21:00.685Z,2.27
2019-01-31T01:23:56.719Z,3.15
2019-01-31T01:27:25.043Z,3.03
2019-01-31T01:30:25.202Z,2.75
2019-01-31T01:33:54.306Z,3.10
2019-01-31T01:37:10.509Z,2.85
2019-01-31T01:40:35.341Z,2.65
2019-01-31T01:43:25.501Z,2.42
2019-01-31T01:47:04.190Z,2.35
2019-01-31T01:50:02.075Z,2.00
2019-01-31T01:53:14.486Z,2.65
2019-01-31T01:56:54.839Z,3.17
2019-01-31T02:00:21.981Z,5.53
2019-01-31T02:03:31.307Z,1.60
2019-01-31T02:06:40.210Z,2.05
2019-01-31T02:09:59.473Z,1.75
2019-01-31T02:13:20.600Z,1.82
2019-01-31T02:16:42.586Z,1.50
2019-01-31T02:20:16.782Z,1.90
2019-01-31T02:23:38.904Z,2.62
2019-01-31T02:27:17.303Z,2.60
2019-01-31T02:30:48.567Z,1.90
2019-01-31T02:34:23.702Z,2.20
2019-01-31T02:37:20.489Z,2.37
2019-01-31T02:40:37.886Z,1.98
2019-01-31T02:43:51.845Z,2.10
2019-01-31T02:47:06.621Z,1.98
2019-01-31T02:50:11.554Z,2.33
2019-01-31T02:53:43.044Z,2.47
2019-01-31T02:57:15.038Z,2.50
2019-01-31T03:00:44.351Z,1.90
2019-01-31T03:04:12.165Z,2.37
2019-01-31T03:07:47.364Z,2.62
2019-01-31T03:11:10.339Z,2.33
2019-01-31T03:14:34.617Z,2.15
2019-01-31T03:18:14.420Z,2.17
2019-01-31T03:21:09.645Z,2.30
2019-01-31T03:24:35.534Z,2.25
2019-01-31T03:27:52.887Z,1.90
2019-01-31T03:31:09.392Z,3.20
2019-01-31T03:34:31.240Z,3.67
2019-01-31T03:38:06.654Z,3.00
2019-01-31T03:41:37.414Z,3.12
2019-01-31T03:45:19.530Z,3.65
2019-01-31T03:48:23.819Z,4.10
2019-01-31T03:51:33.498Z,8.20
2019-01-31T03:55:07.910Z,3.50
2019-01-31T03:58:29.644Z,2.70
2019-01-31T04:01:52.089Z,4.78
2019-01-31T04:04:32.458Z,3.08
2019-01-31T04:07:00.313Z,2.85
2019-01-31T04:09:28.520Z,2.85
2019-01-31T04:11:56.350Z,3.30
2019-01-31T04:14:27.302Z,3.80
2019-01-31T04:16:53.807Z,3.20
2019-01-31T04:19:21.648Z,2.80
2019-01-31T04:21:49.395Z,3.33
2019-01-31T04:24:17.188Z,4.08
2019-01-31T04:26:44.945Z,3.80
2019-01-31T04:29:18.082Z,3.83
2019-01-31T04:31:45.810Z,3.50
2019-01-31T04:34:13.625Z,3.17
2019-01-31T04:36:41.404Z,3.20
2019-01-31T04:39:09.575Z,2.87
2019-01-31T04:41:37.385Z,3.22
2019-01-31T04:44:05.242Z,4.40
2019-01-31T04:46:33.109Z,3.02
2019-01-31T04:49:00.894Z,3.22
2019-01-31T04:51:28.694Z,2.98
2019-01-31T04:53:56.478Z,3.10
2019-01-31T04:56:24.331Z,3.02
2019-01-31T04:58:52.618Z,3.08
2019-01-31T05:01:20.426Z,3.00
2019-01-31T05:03:48.231Z,3.42
2019-01-31T05:06:16.035Z,3.10
2019-01-31T05:08:44.081Z,3.17
2019-01-31T05:11:11.881Z,3.42
2019-01-31T05:13:39.671Z,4.30
2019-01-31T05:16:07.560Z,4.67
2019-01-31T05:18:35.379Z,5.70
2019-01-31T05:21:03.440Z,4.08
2019-01-31T05:23:31.205Z,3.10
2019-01-31T05:25:59.020Z,4.05
2019-01-31T05:28:32.112Z,7.65
2019-01-31T05:30:59.894Z,3.20
2019-01-31T05:33:27.671Z,2.70
2019-01-31T05:35:55.468Z,3.58
2019-01-31T05:38:23.264Z,3.90
2019-01-31T05:40:55.611Z,3.17
2019-01-31T05:43:20.777Z,3.40
2019-01-31T05:45:48.578Z,3.00
2019-01-31T05:48:16.858Z,3.08
2019-01-31T05:50:47.541Z,3.20
2019-01-31T05:53:15.301Z,2.98
2019-01-31T05:55:43.131Z,3.55
2019-01-31T05:58:16.323Z,3.20
2019-01-31T06:00:44.130Z,3.95
2019-01-31T06:03:19.338Z,4.10
2019-01-31T06:05:47.321Z,3.50
2019-01-31T06:08:15.098Z,4.22
2019-01-31T06:10:42.924Z,3.98
2019-01-31T06:13:10.749Z,4.55
2019-01-31T06:15:38.546Z,5.08
2019-01-31T06:18:06.291Z,4.33
2019-01-31T06:20:34.113Z,5.35
2019-01-31T06:23:01.923Z,5.30
2019-01-31T06:25:29.777Z,4.50
2019-01-31T06:27:57.771Z,4.83
2019-01-31T06:30:25.594Z,4.80
2019-01-31T06:32:53.340Z,14.03
2019-01-31T06:35:21.110Z,19.05
2019-01-31T06:37:49.181Z,15.23
2019-01-31T06:40:18.368Z,9.83
2019-01-31T06:42:46.346Z,7.15
2019-01-31T06:45:18.735Z,11.40
2019-01-31T06:47:46.529Z,9.33
2019-01-31T06:50:14.338Z,22.07
2019-01-31T06:52:54.380Z,15.28
2019-01-31T06:55:22.270Z,8.95
2019-01-31T06:57:50.035Z,7.78
2019-01-31T07:00:20.258Z,11.33
2019-01-31T07:02:48.007Z,9.73
2019-01-31T07:05:21.844Z,9.03
2019-01-31T07:07:49.612Z,12.85
2019-01-31T07:10:22.889Z,17.77
2019-01-31T07:12:50.676Z,15.85
2019-01-31T07:15:18.489Z,11.45
2019-01-31T07:17:46.391Z,7.97
2019-01-31T07:20:15.062Z,4.05
2019-01-31T07:22:42.830Z,3.47
2019-01-31T07:25:15.551Z,5.67
2019-01-31T07:27:43.382Z,3.98
2019-01-31T07:30:12.286Z,6.17
2019-01-31T07:32:40.053Z,4.60
2019-01-31T07:35:10.491Z,6.37
2019-01-31T07:37:38.512Z,6.30
2019-01-31T07:40:08.221Z,5.80
2019-01-31T07:42:36.288Z,4.70
2019-01-31T07:45:06.725Z,4.37
2019-01-31T07:47:36.747Z,5.60
2019-01-31T07:50:05.889Z,5.27
2019-01-31T07:52:33.754Z,5.00
2019-01-31T07:55:02.201Z,5.03
2019-01-31T07:57:30.178Z,5.40
2019-01-31T08:00:11.920Z,4.83
2019-01-31T08:02:39.809Z,5.80
2019-01-31T08:05:11.698Z,30.50
2019-01-31T08:07:39.616Z,15.87
2019-01-31T08:10:12.749Z,6.43
2019-01-31T08:12:40.902Z,7.27
2019-01-31T08:15:10.441Z,7.90
2019-01-31T08:17:38.249Z,7.53
2019-01-31T08:20:06.572Z,6.63
2019-01-31T08:22:34.316Z,7.33
2019-01-31T08:25:02.151Z,7.77
2019-01-31T08:27:29.900Z,6.50
2019-01-31T08:29:57.841Z,6.17
2019-01-31T08:32:25.750Z,5.77
2019-01-31T08:34:53.564Z,5.70
2019-01-31T08:37:21.382Z,6.30
2019-01-31T08:39:54.391Z,6.53
2019-01-31T08:42:22.223Z,6.63
2019-01-31T08:44:50.042Z,6.70
2019-01-31T08:47:17.849Z,7.30
2019-01-31T08:49:45.776Z,6.70
2019-01-31T08:52:13.611Z,11.53
2019-01-31T08:54:41.520Z,7.70
2019-01-31T08:57:09.390Z,6.63
2019-01-31T09:00:13.752Z,7.53
2019-01-31T09:02:41.512Z,6.37
2019-01-31T09:05:09.605Z,5.83
2019-01-31T09:07:37.407Z,5.77
2019-01-31T09:10:09.288Z,4.60
2019-01-31T09:12:37.385Z,5.10
2019-01-31T09:15:05.317Z,6.10
2019-01-31T09:17:33.086Z,5.33
2019-01-31T09:20:00.906Z,5.27
2019-01-31T09:23:27.110Z,4.90
2019-01-31T09:27:03.931Z,4.60
2019-01-31T09:29:48.451Z,4.80
2019-01-31T09:33:33.214Z,4.87
2019-01-31T09:36:50.802Z,4.17
2019-01-31T09:40:08.874Z,4.63
2019-01-31T09:43:42.371Z,5.37
2019-01-31T09:46:51.007Z,6.57
2019-01-31T09:50:08.823Z,5.13
2019-01-31T09:53:40.124Z,5.53
2019-01-31T09:57:07.051Z,6.27
2019-01-31T10:00:40.437Z,6.93
2019-01-31T10:03:50.560Z,7.47
2019-01-31T10:06:35.131Z,8.10
2019-01-31T10:10:04.598Z,8.23
2019-01-31T10:13:18.369Z,7.63
2019-01-31T10:16:25.651Z,5.83
2019-01-31T10:19:56.961Z,4.53
2019-01-31T10:23:08.791Z,4.60
2019-01-31T10:26:44.099Z,3.87
2019-01-31T10:29:46.132Z,3.10
2019-01-31T10:32:51.205Z,3.70
2019-01-31T10:36:10.169Z,3.10
2019-01-31T10:39:53.242Z,3.00
2019-01-31T10:42:52.315Z,3.00
2019-01-31T10:46:04.719Z,3.00
2019-01-31T10:49:26.556Z,3.40
2019-01-31T10:52:46.689Z,3.00
2019-01-31T10:55:47.787Z,2.90
2019-01-31T10:59:03.297Z,2.87
2019-01-31T11:03:02.311Z,3.13
2019-01-31T11:06:18.215Z,3.30
2019-01-31T11:09:39.007Z,3.43
2019-01-31T11:13:10.779Z,3.90
2019-01-31T11:16:19.232Z,2.83
2019-01-31T11:19:53.360Z,2.93
2019-01-31T11:23:08.454Z,5.07
2019-01-31T11:26:35.653Z,3.30
2019-01-31T11:29:58.411Z,3.50
2019-01-31T11:33:11.911Z,3.10
2019-01-31T11:36:31.020Z,2.50
2019-01-31T11:40:24.059Z,2.73
2019-01-31T11:43:25.085Z,2.93
2019-01-31T11:46:36.396Z,2.63
2019-01-31T11:50:10.250Z,3.10
2019-01-31T11:53:43.794Z,3.40
2019-01-31T11:56:50.463Z,2.83
2019-01-31T11:59:18.348Z,3.70
2019-01-31T12:01:46.087Z,2.90
2019-01-31T12:04:16.818Z,3.17
2019-01-31T12:06:44.573Z,2.30
2019-01-31T12:09:21.305Z,2.37
2019-01-31T12:12:03.786Z,2.67
2019-01-31T12:14:31.553Z,2.40
2019-01-31T12:16:59.513Z,2.17
2019-01-31T12:19:27.613Z,2.50
2019-01-31T12:21:55.477Z,2.63
2019-01-31T12:24:23.260Z,2.83
2019-01-31T12:26:51.151Z,2.70
2019-01-31T12:29:18.926Z,2.60
2019-01-31T12:31:46.732Z,2.70
2019-01-31T12:34:14.889Z,2.40
2019-01-31T12:36:42.741Z,2.73
2019-01-31T12:39:11.042Z,2.70
2019-01-31T12:41:38.873Z,3.00
2019-01-31T12:44:07.336Z,2.50
2019-01-31T12:46:35.164Z,3.20
2019-01-31T12:49:03.159Z,3.10
2019-01-31T12:51:30.970Z,3.27
2019-01-31T12:53:58.738Z,3.40
2019-01-31T12:56:26.565Z,2.97
2019-01-31T12:58:54.308Z,3.60
2019-01-31T13:01:22.295Z,2.80
2019-01-31T13:03:50.077Z,2.57
2019-01-31T13:06:17.911Z,2.87
2019-01-31T13:08:45.915Z,2.57
2019-01-31T13:11:14.758Z,2.33
2019-01-31T13:13:46.033Z,4.40
2019-01-31T13:16:12.196Z,2.60
2019-01-31T13:18:50.241Z,2.60
2019-01-31T13:21:20.708Z,3.00
2019-01-31T13:23:47.734Z,2.17
2019-01-31T13:26:15.643Z,2.40
2019-01-31T13:28:43.415Z,2.27
2019-01-31T13:31:11.227Z,2.50
2019-01-31T13:33:39.825Z,3.10
2019-01-31T13:36:14.776Z,2.80
2019-01-31T13:38:42.582Z,2.60
2019-01-31T13:41:10.421Z,2.30
2019-01-31T13:43:38.206Z,2.43
2019-01-31T13:46:07.713Z,2.07
2019-01-31T13:48:35.563Z,2.20
2019-01-31T13:51:06.752Z,2.30
2019-01-31T13:53:34.714Z,2.10
2019-01-31T13:56:02.636Z,2.30
2019-01-31T13:58:30.580Z,2.50
2019-01-31T14:00:58.420Z,8.30
2019-01-31T14:03:26.176Z,2.27
2019-01-31T14:05:54.144Z,2.73
2019-01-31T14:08:22.259Z,2.60
2019-01-31T14:10:50.090Z,2.67
2019-01-31T14:13:17.914Z,2.57
2019-01-31T14:15:45.739Z,2.60
2019-01-31T14:18:13.505Z,3.23
2019-01-31T14:20:42.901Z,3.43
2019-01-31T14:23:10.736Z,5.77
2019-01-31T14:25:38.577Z,2.80
2019-01-31T14:28:11.592Z,1.90
2019-01-31T14:30:39.535Z,2.60
2019-01-31T14:33:16.822Z,2.40
2019-01-31T14:35:44.831Z,2.20
2019-01-31T14:38:12.700Z,2.37
2019-01-31T14:40:40.508Z,2.70
2019-01-31T14:43:08.396Z,2.67
2019-01-31T14:45:55.668Z,2.20
2019-01-31T14:48:51.205Z,2.03
2019-01-31T14:51:18.961Z,1.97
2019-01-31T14:53:46.845Z,2.37
2019-01-31T14:56:14.701Z,2.87
2019-01-31T14:58:47.772Z,3.00
2019-01-31T15:01:15.583Z,2.37
2019-01-31T15:03:43.428Z,3.10
2019-01-31T15:06:11.249Z,2.60
2019-01-31T15:08:39.111Z,2.50
2019-01-31T15:11:06.971Z,3.33
2019-01-31T15:13:34.789Z,2.30
2019-01-31T15:16:02.625Z,2.57
2019-01-31T15:18:30.499Z,3.77
2019-01-31T15:20:58.273Z,2.90
2019-01-31T15:23:26.120Z,2.83
2019-01-31T15:25:54.042Z,2.40
2019-01-31T15:28:21.844Z,2.50
2019-01-31T15:30:49.725Z,2.20
2019-01-31T15:33:18.685Z,2.30
2019-01-31T15:35:46.519Z,2.53
2019-01-31T15:38:14.502Z,6.40
2019-01-31T15:40:46.159Z,3.10
2019-01-31T15:43:14.148Z,2.30
2019-01-31T15:45:41.953Z,2.07
2019-01-31T15:48:10.831Z,2.20
2019-01-31T15:50:38.736Z,2.37
2019-01-31T15:53:06.674Z,2.13
2019-01-31T15:55:53.956Z,2.93
2019-01-31T15:58:22.085Z,1.73
2019-01-31T16:00:55.745Z,2.83
2019-01-31T16:03:25.346Z,2.90
2019-01-31T16:05:53.194Z,3.20
2019-01-31T16:08:21.373Z,9.27
2019-01-31T16:10:49.323Z,8.87
2019-01-31T16:13:17.151Z,10.27
2019-01-31T16:15:45.722Z,9.63
2019-01-31T16:18:14.049Z,16.00
2019-01-31T16:20:44.836Z,11.90
2019-01-31T16:23:13.852Z,6.67
2019-01-31T16:25:42.314Z,4.50
2019-01-31T16:28:10.187Z,3.20
2019-01-31T16:30:37.966Z,3.90
2019-01-31T16:33:06.150Z,3.37
2019-01-31T16:35:35.440Z,5.20
2019-01-31T16:38:04.053Z,4.80
2019-01-31T16:40:31.820Z,5.00
2019-01-31T16:42:59.635Z,4.47
2019-01-31T16:45:46.887Z,3.70
2019-01-31T16:48:14.841Z,3.43
2019-01-31T16:50:42.614Z,3.30
2019-01-31T16:53:10.487Z,5.00
2019-01-31T16:55:38.291Z,4.60
2019-01-31T16:58:07.158Z,5.40
2019-01-31T17:00:35.075Z,4.50
2019-01-31T17:03:05.217Z,4.80
2019-01-31T17:05:32.589Z,4.03
2019-01-31T17:08:00.682Z,3.53
2019-01-31T17:10:28.507Z,4.00
2019-01-31T17:12:56.341Z,3.10
2019-01-31T17:15:24.452Z,3.70
2019-01-31T17:17:52.316Z,4.20
2019-01-31T17:20:39.234Z,4.73
2019-01-31T17:23:07.100Z,4.83
2019-01-31T17:25:34.918Z,4.20
2019-01-31T17:28:22.204Z,5.93
2019-01-31T17:30:50.024Z,5.83
2019-01-31T17:33:17.895Z,4.30
2019-01-31T17:35:45.753Z,4.40
2019-01-31T17:38:13.668Z,4.93
2019-01-31T17:40:42.344Z,5.00
2019-01-31T17:43:11.781Z,4.80
2019-01-31T17:45:39.707Z,4.33
2019-01-31T17:48:10.938Z,5.10
2019-01-31T17:50:58.201Z,6.17
2019-01-31T17:53:26.106Z,12.87
2019-01-31T17:55:53.983Z,12.10
2019-01-31T17:58:21.959Z,8.07
2019-01-31T18:00:56.610Z,7.87
2019-01-31T18:03:25.102Z,8.73
2019-01-31T18:05:55.308Z,7.23
2019-01-31T18:08:28.399Z,7.57
2019-01-31T18:10:56.330Z,9.53
2019-01-31T18:13:27.368Z,6.90
2019-01-31T18:15:55.290Z,6.50
2019-01-31T18:18:23.160Z,5.50
2019-01-31T18:20:51.026Z,6.63
2019-01-31T18:23:18.863Z,9.30
2019-01-31T18:25:46.645Z,9.33
2019-01-31T18:28:14.483Z,8.87
2019-01-31T18:30:42.334Z,10.43
2019-01-31T18:33:13.173Z,8.50
2019-01-31T18:35:43.362Z,6.07
2019-01-31T18:38:11.201Z,6.70
2019-01-31T18:40:39.051Z,8.40
2019-01-31T18:43:06.948Z,8.08
2019-01-31T18:45:34.921Z,9.70
2019-01-31T18:48:07.823Z,7.87
2019-01-31T18:50:39.478Z,7.97
2019-01-31T18:53:07.475Z,7.42
2019-01-31T18:55:35.276Z,8.98
2019-01-31T18:58:03.822Z,8.63
2019-01-31T19:00:35.661Z,11.93
2019-01-31T19:03:03.967Z,12.93
2019-01-31T19:05:31.936Z,12.78
2019-01-31T19:08:00.011Z,13.25
2019-01-31T19:10:27.836Z,19.90
2019-01-31T19:12:55.763Z,16.35
2019-01-31T19:15:23.790Z,11.97
2019-01-31T19:17:51.797Z,8.25
2019-01-31T19:20:25.655Z,9.03
2019-01-31T19:22:57.637Z,11.55
2019-01-31T19:25:47.249Z,13.00
2019-01-31T19:28:15.206Z,13.00
2019-01-31T19:30:45.159Z,12.45
2019-01-31T19:33:13.256Z,12.43
2019-01-31T19:35:41.250Z,10.15
2019-01-31T19:38:09.738Z,7.83
2019-01-31T19:40:40.931Z,7.65
2019-01-31T19:43:08.831Z,7.10
2019-01-31T19:45:42.562Z,7.03
2019-01-31T19:48:10.892Z,6.92
2019-01-31T19:50:39.061Z,6.72
2019-01-31T19:53:08.341Z,6.80
2019-01-31T19:55:36.254Z,7.03
2019-01-31T19:58:05.035Z,8.80
2019-01-31T20:00:33.301Z,9.85
2019-01-31T20:03:01.270Z,9.30
2019-01-31T20:05:30.006Z,8.70
2019-01-31T20:07:57.932Z,8.63
2019-01-31T20:10:27.853Z,11.03
2019-01-31T20:12:55.891Z,14.25
2019-01-31T20:15:24.190Z,9.90
2019-01-31T20:17:52.015Z,9.68
2019-01-31T20:20:22.841Z,9.30
2019-01-31T20:22:52.638Z,9.93
2019-01-31T20:25:21.215Z,9.13
2019-01-31T20:27:49.586Z,10.53
2019-01-31T20:30:21.116Z,11.40
2019-01-31T20:32:49.141Z,9.18
2019-01-31T20:35:17.201Z,8.23
2019-01-31T20:37:45.079Z,8.80
2019-01-31T20:40:16.908Z,8.95
2019-01-31T20:42:44.923Z,12.13
2019-01-31T20:45:14.770Z,10.70
2019-01-31T20:47:42.746Z,10.90
2019-01-31T20:50:17.881Z,9.95
2019-01-31T20:52:46.033Z,8.00
2019-01-31T20:55:14.335Z,8.53
2019-01-31T20:57:42.342Z,7.72
2019-01-31T21:00:34.375Z,7.92
2019-01-31T21:03:03.617Z,8.10
2019-01-31T21:05:31.575Z,7.70
2019-01-31T21:07:59.455Z,7.50
2019-01-31T21:10:27.794Z,7.50
2019-01-31T21:12:55.718Z,8.83
2019-01-31T21:15:23.627Z,8.33
2019-01-31T21:17:51.409Z,6.47
2019-01-31T21:20:20.490Z,7.62
2019-01-31T21:22:48.459Z,7.58
2019-01-31T21:25:22.446Z,7.17
2019-01-31T21:27:55.958Z,7.72
2019-01-31T21:30:27.517Z,9.50
2019-01-31T21:32:55.405Z,11.48
2019-01-31T21:35:24.534Z,11.10
2019-01-31T21:37:52.314Z,9.73
2019-01-31T21:40:20.303Z,9.05
2019-01-31T21:42:48.116Z,9.28
2019-01-31T21:45:16.215Z,9.68
2019-01-31T21:47:44.001Z,9.45
2019-01-31T21:50:15.839Z,9.40
2019-01-31T21:52:43.692Z,9.53
2019-01-31T21:55:12.121Z,8.73
2019-01-31T21:57:39.939Z,8.98
2019-01-31T22:00:16.142Z,8.33
2019-01-31T22:02:44.060Z,8.43
2019-01-31T22:05:12.812Z,8.70
2019-01-31T22:07:40.666Z,9.18
2019-01-31T22:10:09.202Z,9.05
2019-01-31T22:12:36.989Z,8.73
2019-01-31T22:15:10.558Z,13.00
2019-01-31T22:17:39.717Z,10.43
2019-01-31T22:20:08.885Z,9.73
2019-01-31T22:22:36.686Z,7.92
2019-01-31T22:25:06.996Z,8.23
2019-01-31T22:27:34.776Z,8.00
2019-01-31T22:30:05.498Z,7.22
2019-01-31T22:32:52.538Z,7.50
2019-01-31T22:35:20.432Z,7.72
2019-01-31T22:37:48.263Z,7.70
2019-01-31T22:40:16.822Z,7.90
2019-01-31T22:42:44.693Z,7.53
2019-01-31T22:45:15.607Z,10.48
2019-01-31T22:47:44.032Z,8.08
2019-01-31T22:50:14.426Z,7.72
2019-01-31T22:52:42.206Z,8.38
2019-01-31T22:55:10.734Z,8.18
2019-01-31T22:57:38.513Z,8.03
2019-01-31T23:00:59.685Z,7.63
2019-01-31T23:03:27.474Z,8.03
2019-01-31T23:05:55.297Z,8.40
2019-01-31T23:08:23.385Z,5.15
2019-01-31T23:10:51.215Z,5.07
2019-01-31T23:13:18.967Z,4.60
2019-01-31T23:15:46.800Z,6.93
2019-01-31T23:18:29.829Z,6.50
2019-01-31T23:20:57.653Z,6.20
2019-01-31T23:23:25.512Z,4.23
2019-01-31T23:26:12.759Z,3.77
2019-01-31T23:28:50.726Z,4.40
2019-01-31T23:31:18.481Z,4.60
2019-01-31T23:33:46.763Z,5.00
2019-01-31T23:36:14.575Z,4.33
2019-01-31T23:38:42.355Z,4.37
2019-01-31T23:41:10.184Z,4.43
2019-01-31T23:43:37.978Z,4.67
2019-01-31T23:46:11.919Z,5.00
2019-01-31T23:48:39.691Z,5.20
2019-01-31T23:51:07.484Z,5.43
2019-01-31T23:53:35.368Z,5.23
2019-01-31T23:56:03.603Z,4.97
2019-01-31T23:58:31.494Z,5.37
